LFSG/EPL METAR and TAF weather

Enter ICAO airport designator
Station Type Date Time Source
LFSG METAR 2019/04/23 04:00 UTC NOAA

LFSG 230400Z AUTO 02004KT CAVOK 11/04 Q0997


Station Type Date Time Source
LFSG Decoded METAR 2019/04/23 04:00 UTC NOAA

Station name not available
Apr 23, 2019 - 12:00 AM EDT / 2019.04.23 0400 UTC
Wind: from the NNE (020 degrees) at 5 MPH (4 KT):0
Visibility: greater than 7 mile(s):0
Temperature: 51 F (11 C)
Dew Point: 39 F (4 C)
Relative Humidity: 61%
Pressure (altimeter): 29.44 in. Hg (0997 hPa)
ob: LFSG 230400Z AUTO 02004KT CAVOK 11/04 Q0997
cycle: 4

Station Type Date Time Source
LFSG TAF UTC NOAA

Error!

Example: see airport list